sensor_id;sensor_type;location;lat;lon;timestamp;pressure;altitude;pressure_sealevel;temperature;humidity
25430;BME280;13360;48.152;-1.788;2023-11-19T00:00:08;103081.56;;;18.43;100.00
25430;BME280;13360;48.152;-1.788;2023-11-19T00:02:38;103138.78;;;17.08;100.00
25430;BME280;13360;48.152;-1.788;2023-11-19T00:05:03;103292.91;;;17.04;100.00
25430;BME280;13360;48.152;-1.788;2023-11-19T00:07:28;103372.75;;;16.95;100.00
25430;BME280;13360;48.152;-1.788;2023-11-19T00:09:53;103429.72;;;16.99;100.00
25430;BME280;13360;48.152;-1.788;2023-11-19T00:12:20;103486.13;;;17.01;100.00
25430;BME280;13360;48.152;-1.788;2023-11-19T00:14:45;103524.38;;;17.01;100.00
25430;BME280;13360;48.152;-1.788;2023-11-19T00:17:10;103559.81;;;16.95;100.00
25430;BME280;13360;48.152;-1.788;2023-11-19T00:19:35;103602.28;;;16.97;100.00
25430;BME280;13360;48.152;-1.788;2023-11-19T00:22:01;103643.31;;;16.97;100.00
25430;BME280;13360;48.152;-1.788;2023-11-19T00:24:28;103677.75;;;17.08;100.00
25430;BME280;13360;48.152;-1.788;2023-11-19T00:26:53;103692.28;;;17.15;100.00
25430;BME280;13360;48.152;-1.788;2023-11-19T00:29:18;103681.03;;;17.04;100.00
25430;BME280;13360;48.152;-1.788;2023-11-19T00:31:45;103695.56;;;17.06;100.00
25430;BME280;13360;48.152;-1.788;2023-11-19T00:34:10;103712.34;;;17.06;100.00
25430;BME280;13360;48.152;-1.788;2023-11-19T00:36:35;103725.72;;;17.04;100.00
25430;BME280;13360;48.152;-1.788;2023-11-19T00:39:01;103734.16;;;17.10;100.00
25430;BME280;13360;48.152;-1.788;2023-11-19T00:41:26;103742.81;;;17.08;100.00
25430;BME280;13360;48.152;-1.788;2023-11-19T00:43:51;103742.81;;;17.08;100.00
25430;BME280;13360;48.152;-1.788;2023-11-19T00:46:17;103719.81;;;16.96;100.00
25430;BME280;13360;48.152;-1.788;2023-11-19T00:48:42;103728.19;;;16.96;100.00
25430;BME280;13360;48.152;-1.788;2023-11-19T00:51:07;103712.78;;;16.88;100.00
25430;BME280;13360;48.152;-1.788;2023-11-19T00:53:33;103723.41;;;16.91;100.00
25430;BME280;13360;48.152;-1.788;2023-11-19T00:55:59;103726.75;;;17.88;100.00
25430;BME280;13360;48.152;-1.788;2023-11-19T00:58:24;103514.53;;;18.12;100.00
25430;BME280;13360;48.152;-1.788;2023-11-19T01:00:49;103395.06;;;18.17;100.00
25430;BME280;13360;48.152;-1.788;2023-11-19T01:03:14;103316.91;;;17.00;100.00
25430;BME280;13360;48.152;-1.788;2023-11-19T01:05:41;103373.81;;;16.74;100.00
25430;BME280;13360;48.152;-1.788;2023-11-19T01:08:06;103415.16;;;16.82;100.00
25430;BME280;13360;48.152;-1.788;2023-11-19T01:10:31;103449.19;;;16.79;100.00
25430;BME280;13360;48.152;-1.788;2023-11-19T01:12:56;103472.63;;;16.78;100.00
25430;BME280;13360;48.152;-1.788;2023-11-19T01:15:22;103474.59;;;16.77;100.00
25430;BME280;13360;48.152;-1.788;2023-11-19T01:17:47;103457.28;;;16.70;100.00
25430;BME280;13360;48.152;-1.788;2023-11-19T01:20:13;103467.59;;;16.70;100.00
25430;BME280;13360;48.152;-1.788;2023-11-19T01:22:38;103468.44;;;16.75;100.00
25430;BME280;13360;48.152;-1.788;2023-11-19T01:25:04;103451.41;;;16.72;100.00
25430;BME280;13360;48.152;-1.788;2023-11-19T01:27:30;103424.81;;;16.64;100.00
25430;BME280;13360;48.152;-1.788;2023-11-19T01:29:56;103433.56;;;16.73;100.00
25430;BME280;13360;48.152;-1.788;2023-11-19T01:32:21;103422.66;;;16.71;100.00
25430;BME280;13360;48.152;-1.788;2023-11-19T01:34:46;103397.75;;;16.60;100.00
25430;BME280;13360;48.152;-1.788;2023-11-19T01:37:11;103396.63;;;16.56;100.00
25430;BME280;13360;48.152;-1.788;2023-11-19T01:39:39;103386.00;;;16.48;100.00
25430;BME280;13360;48.152;-1.788;2023-11-19T01:42:04;103399.97;;;16.63;100.00
25430;BME280;13360;48.152;-1.788;2023-11-19T01:44:29;103379.31;;;16.54;100.00
25430;BME280;13360;48.152;-1.788;2023-11-19T01:46:55;103398.28;;;16.62;100.00
25430;BME280;13360;48.152;-1.788;2023-11-19T01:49:20;103362.84;;;16.47;100.00
25430;BME280;13360;48.152;-1.788;2023-11-19T01:51:45;103352.47;;;16.42;100.00
25430;BME280;13360;48.152;-1.788;2023-11-19T01:54:12;103356.16;;;16.53;100.00
25430;BME280;13360;48.152;-1.788;2023-11-19T01:56:38;103348.63;;;16.59;100.00
25430;BME280;13360;48.152;-1.788;2023-11-19T01:59:05;103344.72;;;16.60;100.00
25430;BME280;13360;48.152;-1.788;2023-11-19T02:01:32;103336.34;;;16.65;100.00
25430;BME280;13360;48.152;-1.788;2023-11-19T02:03:59;103329.38;;;16.57;100.00
25430;BME280;13360;48.152;-1.788;2023-11-19T02:06:26;103324.34;;;16.59;100.00
25430;BME280;13360;48.152;-1.788;2023-11-19T02:08:52;103313.19;;;16.54;100.00
25430;BME280;13360;48.152;-1.788;2023-11-19T02:11:18;103320.72;;;16.59;100.00
25430;BME280;13360;48.152;-1.788;2023-11-19T02:13:43;103308.72;;;16.58;100.00
25430;BME280;13360;48.152;-1.788;2023-11-19T02:16:09;103297.00;;;16.56;100.00
25430;BME280;13360;48.152;-1.788;2023-11-19T02:18:36;103264.31;;;16.41;100.00
25430;BME280;13360;48.152;-1.788;2023-11-19T02:21:01;103264.63;;;16.45;100.00
25430;BME280;13360;48.152;-1.788;2023-11-19T02:23:27;103283.59;;;16.53;100.00
25430;BME280;13360;48.152;-1.788;2023-11-19T02:28:22;103251.81;;;16.49;100.00
25430;BME280;13360;48.152;-1.788;2023-11-19T02:30:47;103232.22;;;16.39;100.00
25430;BME280;13360;48.152;-1.788;2023-11-19T02:33:13;103212.44;;;16.35;100.00
25430;BME280;13360;48.152;-1.788;2023-11-19T02:35:38;103201.28;;;16.35;100.00
25430;BME280;13360;48.152;-1.788;2023-11-19T02:38:03;103187.31;;;16.35;100.00
25430;BME280;13360;48.152;-1.788;2023-11-19T02:40:29;103186.78;;;16.38;100.00
25430;BME280;13360;48.152;-1.788;2023-11-19T02:42:54;103175.34;;;16.35;100.00
25430;BME280;13360;48.152;-1.788;2023-11-19T02:45:21;103168.63;;;16.36;100.00
25430;BME280;13360;48.152;-1.788;2023-11-19T02:47:47;103191.22;;;16.44;100.00
25430;BME280;13360;48.152;-1.788;2023-11-19T02:50:12;103190.69;;;16.48;100.00
25430;BME280;13360;48.152;-1.788;2023-11-19T02:52:40;103200.19;;;16.46;100.00
25430;BME280;13360;48.152;-1.788;2023-11-19T02:55:05;103196.28;;;16.48;100.00
25430;BME280;13360;48.152;-1.788;2023-11-19T02:57:37;103192.34;;;16.43;100.00
25430;BME280;13360;48.152;-1.788;2023-11-19T03:00:02;103191.78;;;16.41;100.00
25430;BME280;13360;48.152;-1.788;2023-11-19T03:02:38;103192.63;;;16.42;100.00
25430;BME280;13360;48.152;-1.788;2023-11-19T03:05:09;103183.13;;;16.43;100.00
25430;BME280;13360;48.152;-1.788;2023-11-19T03:07:34;103177.84;;;16.41;100.00
25430;BME280;13360;48.152;-1.788;2023-11-19T03:09:59;103170.59;;;16.40;100.00
25430;BME280;13360;48.152;-1.788;2023-11-19T03:12:25;103147.72;;;16.38;100.00
25430;BME280;13360;48.152;-1.788;2023-11-19T03:14:51;103163.06;;;16.36;100.00
25430;BME280;13360;48.152;-1.788;2023-11-19T03:17:16;103168.91;;;16.34;100.00
25430;BME280;13360;48.152;-1.788;2023-11-19T03:19:41;103155.25;;;16.33;100.00
25430;BME280;13360;48.152;-1.788;2023-11-19T03:22:07;103153.59;;;16.32;100.00
25430;BME280;13360;48.152;-1.788;2023-11-19T03:24:32;103178.41;;;16.33;100.00
25430;BME280;13360;48.152;-1.788;2023-11-19T03:26:57;103165.56;;;16.32;100.00
25430;BME280;13360;48.152;-1.788;2023-11-19T03:29:22;103113.97;;;16.14;100.00
25430;BME280;13360;48.152;-1.788;2023-11-19T03:31:48;103135.19;;;16.26;100.00
25430;BME280;13360;48.152;-1.788;2023-11-19T03:34:13;103142.97;;;16.29;100.00
25430;BME280;13360;48.152;-1.788;2023-11-19T03:36:38;103142.16;;;16.28;100.00
25430;BME280;13360;48.152;-1.788;2023-11-19T03:39:04;103134.91;;;16.27;100.00
25430;BME280;13360;48.152;-1.788;2023-11-19T03:41:30;103116.50;;;16.26;100.00
25430;BME280;13360;48.152;-1.788;2023-11-19T03:43:55;103105.06;;;16.28;100.00
25430;BME280;13360;48.152;-1.788;2023-11-19T03:46:21;103108.13;;;16.26;100.00
25430;BME280;13360;48.152;-1.788;2023-11-19T03:48:46;103091.94;;;16.18;100.00
25430;BME280;13360;48.152;-1.788;2023-11-19T03:51:12;103092.47;;;16.20;100.00
25430;BME280;13360;48.152;-1.788;2023-11-19T03:53:40;103089.13;;;16.23;100.00
25430;BME280;13360;48.152;-1.788;2023-11-19T03:56:05;103078.53;;;16.15;100.00
25430;BME280;13360;48.152;-1.788;2023-11-19T03:58:31;103081.34;;;16.20;100.00
25430;BME280;13360;48.152;-1.788;2023-11-19T04:00:56;103068.78;;;16.17;100.00
25430;BME280;13360;48.152;-1.788;2023-11-19T04:03:21;103074.38;;;16.17;100.00
25430;BME280;13360;48.152;-1.788;2023-11-19T04:05:47;103069.91;;;16.16;100.00
25430;BME280;13360;48.152;-1.788;2023-11-19T04:08:12;103054.03;;;16.12;100.00
25430;BME280;13360;48.152;-1.788;2023-11-19T04:10:37;103044.53;;;16.13;100.00
25430;BME280;13360;48.152;-1.788;2023-11-19T04:13:02;103051.22;;;16.07;100.00
25430;BME280;13360;48.152;-1.788;2023-11-19T04:15:27;103049.56;;;16.11;100.00
25430;BME280;13360;48.152;-1.788;2023-11-19T04:17:53;103047.34;;;16.08;100.00
25430;BME280;13360;48.152;-1.788;2023-11-19T04:20:18;103040.09;;;16.07;100.00
25430;BME280;13360;48.152;-1.788;2023-11-19T04:22:43;103038.97;;;16.08;100.00
25430;BME280;13360;48.152;-1.788;2023-11-19T04:25:08;103041.19;;;16.06;100.00
25430;BME280;13360;48.152;-1.788;2023-11-19T04:27:34;103039.53;;;16.05;100.00
25430;BME280;13360;48.152;-1.788;2023-11-19T04:29:59;103049.56;;;16.06;100.00
25430;BME280;13360;48.152;-1.788;2023-11-19T04:32:26;103047.06;;;16.04;100.00
25430;BME280;13360;48.152;-1.788;2023-11-19T04:34:52;103027.78;;;16.03;100.00
25430;BME280;13360;48.152;-1.788;2023-11-19T04:37:17;103047.91;;;16.05;100.00
25430;BME280;13360;48.152;-1.788;2023-11-19T04:39:44;103038.09;;;16.02;100.00
25430;BME280;13360;48.152;-1.788;2023-11-19T04:42:09;103031.13;;;16.00;100.00
25430;BME280;13360;48.152;-1.788;2023-11-19T04:44:34;103023.34;;;15.97;100.00
25430;BME280;13360;48.152;-1.788;2023-11-19T04:46:59;103037.00;;;15.98;100.00
25430;BME280;13360;48.152;-1.788;2023-11-19T04:49:25;103035.59;;;15.96;100.00
25430;BME280;13360;48.152;-1.788;2023-11-19T04:51:52;103035.59;;;15.96;100.00
25430;BME280;13360;48.152;-1.788;2023-11-19T04:54:17;103036.72;;;15.95;100.00
25430;BME280;13360;48.152;-1.788;2023-11-19T04:56:46;103047.03;;;15.94;100.00
25430;BME280;13360;48.152;-1.788;2023-11-19T04:59:15;103043.41;;;15.94;100.00
25430;BME280;13360;48.152;-1.788;2023-11-19T05:01:40;103040.06;;;15.92;100.00
25430;BME280;13360;48.152;-1.788;2023-11-19T05:04:06;103038.41;;;15.91;100.00
25430;BME280;13360;48.152;-1.788;2023-11-19T05:06:32;103051.50;;;15.90;100.00
25430;BME280;13360;48.152;-1.788;2023-11-19T05:08:58;103042.84;;;15.87;100.00
25430;BME280;13360;48.152;-1.788;2023-11-19T05:11:25;103045.66;;;15.87;100.00
25430;BME280;13360;48.152;-1.788;2023-11-19T05:13:53;103053.72;;;15.88;100.00
25430;BME280;13360;48.152;-1.788;2023-11-19T05:16:18;103057.06;;;15.90;100.00
25430;BME280;13360;48.152;-1.788;2023-11-19T05:18:44;103067.09;;;15.91;100.00
25430;BME280;13360;48.152;-1.788;2023-11-19T05:21:10;103074.91;;;15.94;100.00
25430;BME280;13360;48.152;-1.788;2023-11-19T05:23:35;103076.84;;;15.94;100.00
25430;BME280;13360;48.152;-1.788;2023-11-19T05:26:03;103079.09;;;15.97;100.00
25430;BME280;13360;48.152;-1.788;2023-11-19T05:28:28;103070.72;;;15.97;100.00
25430;BME280;13360;48.152;-1.788;2023-11-19T05:30:54;103046.75;;;15.91;100.00
25430;BME280;13360;48.152;-1.788;2023-11-19T05:33:19;103049.50;;;15.70;100.00
25430;BME280;13360;48.152;-1.788;2023-11-19T05:35:45;103072.41;;;15.82;100.00
25430;BME280;13360;48.152;-1.788;2023-11-19T05:38:10;103036.97;;;15.73;100.00
25430;BME280;13360;48.152;-1.788;2023-11-19T05:40:35;103037.53;;;15.75;100.00
25430;BME280;13360;48.152;-1.788;2023-11-19T05:43:01;103037.81;;;15.73;100.00
25430;BME280;13360;48.152;-1.788;2023-11-19T05:45:26;103044.78;;;15.71;100.00
25430;BME280;13360;48.152;-1.788;2023-11-19T05:47:51;103042.25;;;15.69;100.00
25430;BME280;13360;48.152;-1.788;2023-11-19T05:50:17;103048.41;;;15.66;100.00
25430;BME280;13360;48.152;-1.788;2023-11-19T05:52:43;103067.91;;;15.66;100.00
25430;BME280;13360;48.152;-1.788;2023-11-19T05:55:08;103087.41;;;15.66;100.00
25430;BME280;13360;48.152;-1.788;2023-11-19T05:57:35;103099.66;;;15.70;100.00
25430;BME280;13360;48.152;-1.788;2023-11-19T06:00:00;103122.22;;;15.74;100.00
25430;BME280;13360;48.152;-1.788;2023-11-19T06:02:26;103148.72;;;15.76;100.00
25430;BME280;13360;48.152;-1.788;2023-11-19T06:04:52;103166.00;;;15.78;100.00
25430;BME280;13360;48.152;-1.788;2023-11-19T06:07:18;103166.00;;;15.78;100.00
25430;BME280;13360;48.152;-1.788;2023-11-19T06:09:43;103179.13;;;15.83;100.00
25430;BME280;13360;48.152;-1.788;2023-11-19T06:12:08;103176.34;;;15.83;100.00
25430;BME280;13360;48.152;-1.788;2023-11-19T06:14:33;103150.16;;;15.84;100.00
25430;BME280;13360;48.152;-1.788;2023-11-19T06:16:58;103159.59;;;15.78;100.00
25430;BME280;13360;48.152;-1.788;2023-11-19T06:19:24;103174.34;;;15.78;100.00
25430;BME280;13360;48.152;-1.788;2023-11-19T06:21:50;103173.69;;;15.56;100.00
25430;BME280;13360;48.152;-1.788;2023-11-19T06:24:15;103209.88;;;15.51;100.00
25430;BME280;13360;48.152;-1.788;2023-11-19T06:26:40;103227.13;;;15.48;100.00
25430;BME280;13360;48.152;-1.788;2023-11-19T06:29:05;103227.09;;;15.43;100.00
25430;BME280;13360;48.152;-1.788;2023-11-19T06:31:31;103230.94;;;15.37;100.00
25430;BME280;13360;48.152;-1.788;2023-11-19T06:33:56;103241.25;;;15.36;100.00
25430;BME280;13360;48.152;-1.788;2023-11-19T06:36:21;103253.19;;;15.32;100.00
25430;BME280;13360;48.152;-1.788;2023-11-19T06:38:46;103262.66;;;15.31;100.00
25430;BME280;13360;48.152;-1.788;2023-11-19T06:41:12;103267.38;;;15.30;100.00
25430;BME280;13360;48.152;-1.788;2023-11-19T06:43:37;103274.91;;;15.30;100.00
25430;BME280;13360;48.152;-1.788;2023-11-19T06:46:02;103279.06;;;15.27;100.00
25430;BME280;13360;48.152;-1.788;2023-11-19T06:48:30;103294.16;;;15.36;100.00
25430;BME280;13360;48.152;-1.788;2023-11-19T06:50:57;103274.13;;;15.39;100.00
25430;BME280;13360;48.152;-1.788;2023-11-19T06:53:22;103194.31;;;16.53;100.00
25430;BME280;13360;48.152;-1.788;2023-11-19T06:55:47;103032.81;;;16.67;100.00
25430;BME280;13360;48.152;-1.788;2023-11-19T06:58:12;102966.94;;;16.71;100.00
25430;BME280;13360;48.152;-1.788;2023-11-19T07:00:37;102913.38;;;16.69;100.00
25430;BME280;13360;48.152;-1.788;2023-11-19T07:03:03;102863.69;;;16.66;100.00
25430;BME280;13360;48.152;-1.788;2023-11-19T07:05:28;102826.31;;;16.67;100.00
25430;BME280;13360;48.152;-1.788;2023-11-19T07:07:55;102786.97;;;16.68;100.00
25430;BME280;13360;48.152;-1.788;2023-11-19T07:10:20;102752.66;;;16.68;100.00
25430;BME280;13360;48.152;-1.788;2023-11-19T07:12:45;102727.84;;;16.66;100.00
25430;BME280;13360;48.152;-1.788;2023-11-19T07:15:12;102704.06;;;16.64;100.00
25430;BME280;13360;48.152;-1.788;2023-11-19T07:17:38;102684.00;;;16.62;100.00
25430;BME280;13360;48.152;-1.788;2023-11-19T07:20:05;102646.38;;;16.59;100.00
25430;BME280;13360;48.152;-1.788;2023-11-19T07:22:30;102635.22;;;16.59;100.00
25430;BME280;13360;48.152;-1.788;2023-11-19T07:24:56;102622.63;;;16.62;100.00
25430;BME280;13360;48.152;-1.788;2023-11-19T07:27:21;102605.34;;;16.60;100.00
25430;BME280;13360;48.152;-1.788;2023-11-19T07:29:47;102600.59;;;16.60;100.00
25430;BME280;13360;48.152;-1.788;2023-11-19T07:32:13;102584.69;;;16.61;100.00
25430;BME280;13360;48.152;-1.788;2023-11-19T07:34:38;102576.88;;;16.63;100.00
25430;BME280;13360;48.152;-1.788;2023-11-19T07:37:04;102574.72;;;16.55;100.00
25430;BME280;13360;48.152;-1.788;2023-11-19T07:39:30;102562.91;;;16.63;100.00
25430;BME280;13360;48.152;-1.788;2023-11-19T07:41:55;102555.66;;;16.62;100.00
25430;BME280;13360;48.152;-1.788;2023-11-19T07:44:20;102545.94;;;16.59;100.00
25430;BME280;13360;48.152;-1.788;2023-11-19T07:46:46;102539.53;;;16.59;100.00
25430;BME280;13360;48.152;-1.788;2023-11-19T07:49:12;102548.13;;;16.62;100.00
25430;BME280;13360;48.152;-1.788;2023-11-19T07:51:38;102549.50;;;16.70;100.00
25430;BME280;13360;48.152;-1.788;2023-11-19T07:54:03;102536.44;;;16.60;100.00
25430;BME280;13360;48.152;-1.788;2023-11-19T07:56:29;102552.28;;;16.65;100.00
25430;BME280;13360;48.152;-1.788;2023-11-19T07:58:54;102545.03;;;16.64;100.00
25430;BME280;13360;48.152;-1.788;2023-11-19T08:01:19;102541.13;;;16.70;100.00
25430;BME280;13360;48.152;-1.788;2023-11-19T08:03:44;102621.06;;;15.52;100.00
25430;BME280;13360;48.152;-1.788;2023-11-19T08:06:10;102724.41;;;15.35;100.00
25430;BME280;13360;48.152;-1.788;2023-11-19T08:08:35;102794.88;;;15.36;100.00
25430;BME280;13360;48.152;-1.788;2023-11-19T08:11:00;102836.91;;;15.34;100.00
25430;BME280;13360;48.152;-1.788;2023-11-19T08:13:26;102878.41;;;15.36;100.00
25430;BME280;13360;48.152;-1.788;2023-11-19T08:15:51;102914.59;;;15.41;100.00
25430;BME280;13360;48.152;-1.788;2023-11-19T08:18:17;102936.91;;;15.46;100.00
25430;BME280;13360;48.152;-1.788;2023-11-19T08:20:43;102957.75;;;15.38;100.00
25430;BME280;13360;48.152;-1.788;2023-11-19T08:23:09;102979.25;;;15.43;100.00
25430;BME280;13360;48.152;-1.788;2023-11-19T08:25:35;102999.25;;;15.35;100.00
25430;BME280;13360;48.152;-1.788;2023-11-19T08:28:00;103027.63;;;15.27;100.00
25430;BME280;13360;48.152;-1.788;2023-11-19T08:30:25;103058.53;;;15.25;100.00
25430;BME280;13360;48.152;-1.788;2023-11-19T08:32:51;103071.06;;;15.28;100.00
25430;BME280;13360;48.152;-1.788;2023-11-19T08:35:16;103089.16;;;15.25;100.00
25430;BME280;13360;48.152;-1.788;2023-11-19T08:37:41;103115.06;;;15.31;100.00
25430;BME280;13360;48.152;-1.788;2023-11-19T08:40:07;103138.47;;;15.30;100.00
25430;BME280;13360;48.152;-1.788;2023-11-19T08:42:32;103155.75;;;15.37;100.00
25430;BME280;13360;48.152;-1.788;2023-11-19T08:44:57;103179.69;;;15.33;100.00
25430;BME280;13360;48.152;-1.788;2023-11-19T08:47:23;103205.94;;;15.42;100.00
25430;BME280;13360;48.152;-1.788;2023-11-19T08:49:51;103219.50;;;15.33;100.00
25430;BME280;13360;48.152;-1.788;2023-11-19T08:52:20;103241.53;;;15.40;100.00
25430;BME280;13360;48.152;-1.788;2023-11-19T08:54:45;103254.47;;;15.56;100.00
25430;BME280;13360;48.152;-1.788;2023-11-19T08:57:10;103264.91;;;15.71;100.00
25430;BME280;13360;48.152;-1.788;2023-11-19T08:59:36;103244.00;;;15.73;100.00
25430;BME280;13360;48.152;-1.788;2023-11-19T09:02:03;103281.44;;;15.88;100.00
25430;BME280;13360;48.152;-1.788;2023-11-19T09:04:28;103263.31;;;15.85;100.00
25430;BME280;13360;48.152;-1.788;2023-11-19T09:06:53;103282.91;;;16.05;100.00
25430;BME280;13360;48.152;-1.788;2023-11-19T09:09:19;103289.69;;;16.30;100.00
25430;BME280;13360;48.152;-1.788;2023-11-19T09:11:45;103295.88;;;16.47;100.00
25430;BME280;13360;48.152;-1.788;2023-11-19T09:14:10;103260.44;;;16.53;100.00
25430;BME280;13360;48.152;-1.788;2023-11-19T09:16:35;103253.47;;;16.65;100.00
25430;BME280;13360;48.152;-1.788;2023-11-19T09:19:00;103225.63;;;16.70;100.00
25430;BME280;13360;48.152;-1.788;2023-11-19T09:21:27;103218.38;;;16.74;100.00
25430;BME280;13360;48.152;-1.788;2023-11-19T09:23:54;103218.91;;;16.97;100.00
25430;BME280;13360;48.152;-1.788;2023-11-19T09:26:19;103174.53;;;16.95;100.00
25430;BME280;13360;48.152;-1.788;2023-11-19T09:28:44;103158.31;;;17.02;100.00
25430;BME280;13360;48.152;-1.788;2023-11-19T09:31:16;103145.47;;;17.12;100.00
25430;BME280;13360;48.152;-1.788;2023-11-19T09:33:42;103116.97;;;17.15;100.00
25430;BME280;13360;48.152;-1.788;2023-11-19T09:36:07;103126.41;;;17.34;100.00
25430;BME280;13360;48.152;-1.788;2023-11-19T09:38:33;103088.41;;;17.28;100.00
25430;BME280;13360;48.152;-1.788;2023-11-19T09:40:58;103075.28;;;17.33;100.00
25430;BME280;13360;48.152;-1.788;2023-11-19T09:43:25;103083.31;;;17.50;100.00
25430;BME280;13360;48.152;-1.788;2023-11-19T09:45:53;103074.06;;;17.55;100.00
25430;BME280;13360;48.152;-1.788;2023-11-19T09:48:19;103042.56;;;17.39;100.00
25430;BME280;13360;48.152;-1.788;2023-11-19T09:50:45;103051.53;;;17.36;100.00
25430;BME280;13360;48.152;-1.788;2023-11-19T09:53:11;103031.69;;;17.37;100.00
25430;BME280;13360;48.152;-1.788;2023-11-19T09:55:37;103014.72;;;17.29;100.00
25430;BME280;13360;48.152;-1.788;2023-11-19T09:58:02;103037.03;;;17.34;100.00
25430;BME280;13360;48.152;-1.788;2023-11-19T10:00:27;103031.44;;;17.34;100.00
25430;BME280;13360;48.152;-1.788;2023-11-19T10:02:52;102993.53;;;17.18;100.00
25430;BME280;13360;48.152;-1.788;2023-11-19T10:05:18;102998.53;;;17.21;100.00
25430;BME280;13360;48.152;-1.788;2023-11-19T10:07:45;102987.91;;;17.23;100.00
25430;BME280;13360;48.152;-1.788;2023-11-19T10:10:10;103008.22;;;17.38;100.00
25430;BME280;13360;48.152;-1.788;2023-11-19T10:12:40;103008.72;;;17.46;100.00
25430;BME280;13360;48.152;-1.788;2023-11-19T10:15:05;102992.25;;;17.49;100.00
25430;BME280;13360;48.152;-1.788;2023-11-19T10:17:32;102959.88;;;17.38;100.00
25430;BME280;13360;48.152;-1.788;2023-11-19T10:19:58;102967.72;;;17.36;100.00
25430;BME280;13360;48.152;-1.788;2023-11-19T10:22:24;102958.75;;;17.39;100.00
25430;BME280;13360;48.152;-1.788;2023-11-19T10:24:50;102970.53;;;17.36;100.00
25430;BME280;13360;48.152;-1.788;2023-11-19T10:27:15;102973.31;;;17.36;100.00
25430;BME280;13360;48.152;-1.788;2023-11-19T10:29:40;102934.56;;;17.24;100.00
25430;BME280;13360;48.152;-1.788;2023-11-19T10:32:09;102935.28;;;17.40;100.00
25430;BME280;13360;48.152;-1.788;2023-11-19T10:34:34;102946.66;;;17.49;100.00
25430;BME280;13360;48.152;-1.788;2023-11-19T10:37:02;102901.84;;;17.30;100.00
25430;BME280;13360;48.152;-1.788;2023-11-19T10:39:41;102873.41;;;17.23;100.00
25430;BME280;13360;48.152;-1.788;2023-11-19T10:42:16;102874.97;;;17.39;100.00
25430;BME280;13360;48.152;-1.788;2023-11-19T10:44:41;102852.72;;;17.24;100.00
25430;BME280;13360;48.152;-1.788;2023-11-19T10:47:07;102845.16;;;17.29;100.00
25430;BME280;13360;48.152;-1.788;2023-11-19T10:49:33;102838.44;;;17.30;100.00
25430;BME280;13360;48.152;-1.788;2023-11-19T10:52:00;102809.03;;;17.38;100.00
25430;BME280;13360;48.152;-1.788;2023-11-19T10:54:26;102795.56;;;17.45;100.00
25430;BME280;13360;48.152;-1.788;2023-11-19T10:56:54;102803.28;;;17.58;100.00
25430;BME280;13360;48.152;-1.788;2023-11-19T10:59:20;102783.22;;;17.51;100.00
25430;BME280;13360;48.152;-1.788;2023-11-19T11:01:47;102782.88;;;17.58;100.00
25430;BME280;13360;48.152;-1.788;2023-11-19T11:04:22;102730.22;;;17.41;100.00
25430;BME280;13360;48.152;-1.788;2023-11-19T11:06:47;102717.56;;;17.49;100.00
25430;BME280;13360;48.152;-1.788;2023-11-19T11:09:13;102677.75;;;17.38;100.00
25430;BME280;13360;48.152;-1.788;2023-11-19T11:11:40;102651.03;;;17.32;100.00
25430;BME280;13360;48.152;-1.788;2023-11-19T11:14:08;102677.69;;;17.43;100.00
25430;BME280;13360;48.152;-1.788;2023-11-19T11:16:36;102682.59;;;17.56;100.00
25430;BME280;13360;48.152;-1.788;2023-11-19T11:19:02;102652.47;;;17.48;100.00
25430;BME280;13360;48.152;-1.788;2023-11-19T11:21:28;102624.22;;;17.31;100.00
25430;BME280;13360;48.152;-1.788;2023-11-19T11:26:45;102600.06;;;17.40;100.00
25430;BME280;13360;48.152;-1.788;2023-11-19T11:29:24;102582.13;;;17.46;100.00
25430;BME280;13360;48.152;-1.788;2023-11-19T11:31:55;102568.97;;;17.47;100.00
25430;BME280;13360;48.152;-1.788;2023-11-19T11:37:03;102560.69;;;17.60;100.00
25430;BME280;13360;48.152;-1.788;2023-11-19T11:39:33;102568.69;;;17.67;100.00
25430;BME280;13360;48.152;-1.788;2023-11-19T11:47:25;102530.50;;;17.62;100.00
25430;BME280;13360;48.152;-1.788;2023-11-19T11:49:51;102497.56;;;17.59;100.00
25430;BME280;13360;48.152;-1.788;2023-11-19T11:52:17;102483.91;;;17.58;100.00
25430;BME280;13360;48.152;-1.788;2023-11-19T11:54:42;102457.84;;;17.62;100.00
25430;BME280;13360;48.152;-1.788;2023-11-19T11:59:36;102424.19;;;17.73;100.00
25430;BME280;13360;48.152;-1.788;2023-11-19T12:02:02;102400.31;;;17.61;100.00
25430;BME280;13360;48.152;-1.788;2023-11-19T12:04:28;102349.22;;;17.42;100.00
25430;BME280;13360;48.152;-1.788;2023-11-19T12:07:03;102323.31;;;17.55;100.00
25430;BME280;13360;48.152;-1.788;2023-11-19T12:09:28;102314.59;;;17.76;100.00
25430;BME280;13360;48.152;-1.788;2023-11-19T12:12:06;102268.47;;;17.59;100.00
25430;BME280;13360;48.152;-1.788;2023-11-19T12:19:59;102225.56;;;17.83;100.00
25430;BME280;13360;48.152;-1.788;2023-11-19T12:22:25;102219.88;;;17.88;100.00
25430;BME280;13360;48.152;-1.788;2023-11-19T12:24:50;102189.47;;;17.73;100.00
25430;BME280;13360;48.152;-1.788;2023-11-19T12:27:17;102194.19;;;17.86;100.00
25430;BME280;13360;48.152;-1.788;2023-11-19T12:29:43;102147.31;;;17.55;100.00
25430;BME280;13360;48.152;-1.788;2023-11-19T12:32:11;102065.66;;;17.45;100.00
25430;BME280;13360;48.152;-1.788;2023-11-19T12:34:36;102024.28;;;17.47;100.00
25430;BME280;13360;48.152;-1.788;2023-11-19T12:37:04;101960.91;;;17.33;100.00
25430;BME280;13360;48.152;-1.788;2023-11-19T12:39:30;101926.31;;;17.43;100.00
25430;BME280;13360;48.152;-1.788;2023-11-19T12:41:55;101913.16;;;17.57;100.00
25430;BME280;13360;48.152;-1.788;2023-11-19T12:44:21;101895.25;;;17.58;100.00